Time;durP1;ratioP1;P1;durP2;ratioP2;P2;SDS_P1;SDS_P2;PMS_P1;PMS_P2;Temp;Humidity;BMP_temperature;BMP_pressure;BME280_temperature;BME280_humidity;BME280_pressure;Samples;Min_cycle;Max_cycle;Signal;HPM_P1;HPM_P2
2022/03/18 00:02:26;;;;;;;71.57;28.92;;;7.30;99.90;;;;;;5013621;28;20058;-73
2022/03/18 00:04:53;;;;;;;75.78;32.05;;;7.30;99.90;;;;;;5019398;28;20045;-73
2022/03/18 00:07:20;;;;;;;76.90;29.70;;;7.30;99.90;;;;;;5019458;28;20025;-72
2022/03/18 00:09:47;;;;;;;73.72;28.90;;;7.30;99.90;;;;;;5027409;28;20084;-73
2022/03/18 00:12:13;;;;;;;75.57;30.48;;;7.30;99.90;;;;;;5016551;28;20033;-73
2022/03/18 00:14:39;;;;;;;75.95;29.10;;;7.40;99.90;;;;;;5020474;28;20040;-75
2022/03/18 00:17:09;;;;;;;72.18;28.73;;;7.40;99.90;;;;;;5025272;28;20033;-73
2022/03/18 00:19:39;;;;;;;68.03;26.98;;;7.40;99.90;;;;;;5012012;28;20034;-73
2022/03/18 00:22:06;;;;;;;69.23;27.87;;;7.40;99.90;;;;;;5027675;28;20113;-73
2022/03/18 00:24:33;;;;;;;68.85;27.55;;;7.30;99.90;;;;;;5014215;28;20064;-73
2022/03/18 00:26:59;;;;;;;67.63;27.35;;;7.30;99.90;;;;;;5023514;28;20060;-74
2022/03/18 00:29:25;;;;;;;73.65;27.50;;;7.30;99.90;;;;;;5011766;28;20370;-73
2022/03/18 00:31:52;;;;;;;66.72;26.95;;;7.30;99.90;;;;;;5013688;28;21242;-73
2022/03/18 00:34:18;;;;;;;68.30;26.50;;;7.20;99.90;;;;;;5009019;28;20042;-73
2022/03/18 00:36:44;;;;;;;68.28;27.10;;;7.20;99.90;;;;;;5012808;28;20041;-73
2022/03/18 00:39:09;;;;;;;65.68;26.20;;;7.20;99.90;;;;;;5012535;28;20110;-72
2022/03/18 00:41:35;;;;;;;63.97;25.42;;;7.20;99.90;;;;;;5019811;28;20037;-72
2022/03/18 00:44:01;;;;;;;64.35;26.15;;;7.20;99.90;;;;;;5017393;28;20026;-72
2022/03/18 00:46:26;;;;;;;66.32;25.95;;;7.30;99.90;;;;;;5022057;28;20487;-73
2022/03/18 00:54:21;;;;;;;67.30;27.13;;;7.30;99.90;;;;;;5028003;28;20067;-72
2022/03/18 00:56:47;;;;;;;63.08;25.52;;;7.30;99.90;;;;;;5020630;28;20041;-73
2022/03/18 00:59:13;;;;;;;63.00;25.60;;;7.20;99.90;;;;;;5011056;28;20262;-73
2022/03/18 01:01:39;;;;;;;60.22;24.63;;;7.20;99.90;;;;;;5023676;28;20128;-73
2022/03/18 01:04:05;;;;;;;65.05;25.05;;;7.20;99.90;;;;;;5022290;28;20054;-73
2022/03/18 01:06:35;;;;;;;62.60;24.83;;;7.20;99.90;;;;;;5024876;28;20041;-72
2022/03/18 01:09:05;;;;;;;62.97;26.50;;;7.30;99.90;;;;;;5017285;28;20038;-74
2022/03/18 01:11:34;;;;;;;64.80;25.57;;;7.30;99.90;;;;;;5027904;28;20033;-73
2022/03/18 01:13:59;;;;;;;71.20;26.40;;;7.30;99.90;;;;;;5012189;28;20486;-74
2022/03/18 01:16:25;;;;;;;62.63;25.30;;;7.30;99.90;;;;;;5019382;28;20048;-73
2022/03/18 01:18:50;;;;;;;66.55;25.30;;;7.30;99.90;;;;;;5013060;28;20041;-72
2022/03/18 01:21:16;;;;;;;66.47;26.85;;;7.30;99.90;;;;;;5010128;28;20069;-73
2022/03/18 01:23:42;;;;;;;63.72;25.17;;;7.30;99.90;;;;;;5016612;28;20034;-74
2022/03/18 01:26:08;;;;;;;60.75;24.92;;;7.20;99.90;;;;;;5012225;28;20049;-74
2022/03/18 01:28:33;;;;;;;63.55;25.98;;;7.30;99.90;;;;;;5011527;28;20040;-73
2022/03/18 01:30:59;;;;;;;61.40;24.77;;;7.30;99.90;;;;;;5008676;28;20036;-73
2022/03/18 01:33:25;;;;;;;61.25;24.08;;;7.30;99.90;;;;;;5014249;28;20030;-72
2022/03/18 01:35:50;;;;;;;65.30;25.65;;;7.30;99.90;;;;;;5026350;28;20048;-72
2022/03/18 01:38:16;;;;;;;65.47;25.85;;;7.30;99.90;;;;;;5020092;28;20474;-73
2022/03/18 01:40:42;;;;;;;59.88;24.95;;;7.30;99.90;;;;;;5014577;28;20472;-73
2022/03/18 01:43:11;;;;;;;64.47;25.85;;;7.30;99.90;;;;;;5010004;28;20034;-73
2022/03/18 01:45:37;;;;;;;60.78;24.65;;;7.20;99.90;;;;;;5018129;28;20104;-73
2022/03/18 01:48:04;;;;;;;62.78;24.48;;;7.20;99.90;;;;;;5008765;28;20033;-73
2022/03/18 01:50:30;;;;;;;65.07;26.13;;;7.20;99.90;;;;;;5014872;28;20091;-73
2022/03/18 01:52:57;;;;;;;69.63;27.58;;;7.20;99.90;;;;;;5018615;28;20049;-73
2022/03/18 01:55:24;;;;;;;62.78;25.75;;;7.20;99.90;;;;;;5023124;28;20073;-72
2022/03/18 01:57:51;;;;;;;64.32;24.88;;;7.20;99.90;;;;;;5008481;28;20091;-74
2022/03/18 02:00:19;;;;;;;67.75;25.42;;;7.10;99.90;;;;;;5012597;28;20977;-73
2022/03/18 02:02:46;;;;;;;61.30;24.65;;;7.20;99.90;;;;;;5013782;28;20038;-73
2022/03/18 02:05:11;;;;;;;61.35;24.75;;;7.20;99.90;;;;;;5014399;28;20033;-74
2022/03/18 02:07:37;;;;;;;68.18;25.92;;;7.20;99.90;;;;;;5021241;28;20034;-72
2022/03/18 02:10:04;;;;;;;64.18;25.85;;;7.20;99.90;;;;;;5010588;28;20038;-74
2022/03/18 02:12:30;;;;;;;62.00;24.73;;;7.20;99.90;;;;;;5021804;28;20029;-73
2022/03/18 02:14:55;;;;;;;65.25;26.25;;;7.10;99.90;;;;;;5013476;28;20037;-72
2022/03/18 02:17:21;;;;;;;64.95;25.10;;;7.10;99.90;;;;;;5017594;28;20220;-73
2022/03/18 02:19:48;;;;;;;61.40;24.67;;;7.20;99.90;;;;;;5008847;28;20435;-73
2022/03/18 02:22:17;;;;;;;64.85;25.27;;;7.20;99.90;;;;;;5020113;28;20484;-73
2022/03/18 02:24:46;;;;;;;65.05;25.90;;;7.20;99.90;;;;;;5028958;28;20083;-72
2022/03/18 02:27:12;;;;;;;67.25;27.70;;;7.20;99.90;;;;;;5021446;28;20064;-73
2022/03/18 02:29:38;;;;;;;69.88;26.55;;;7.20;99.90;;;;;;5017329;28;20171;-73
2022/03/18 02:32:05;;;;;;;63.33;25.25;;;7.20;99.90;;;;;;5007762;28;20045;-74
2022/03/18 02:34:32;;;;;;;64.60;25.65;;;7.20;99.90;;;;;;5026477;28;20484;-72
2022/03/18 02:36:58;;;;;;;69.65;26.85;;;7.20;99.90;;;;;;5014461;28;20045;-73
2022/03/18 02:39:25;;;;;;;62.80;25.73;;;7.10;99.90;;;;;;5015606;28;20033;-71
2022/03/18 02:41:51;;;;;;;68.82;26.20;;;7.10;99.90;;;;;;5028134;28;20057;-73
2022/03/18 02:44:17;;;;;;;63.25;26.73;;;7.10;99.90;;;;;;5016835;28;20118;-73
2022/03/18 02:46:42;;;;;;;65.72;26.17;;;7.10;99.90;;;;;;5023530;28;20898;-72
2022/03/18 02:49:08;;;;;;;68.43;27.58;;;7.10;99.90;;;;;;5042563;28;20091;-73
2022/03/18 02:51:37;;;;;;;68.65;27.65;;;7.00;99.90;;;;;;5017705;28;20499;-72
2022/03/18 02:54:07;;;;;;;64.38;25.65;;;7.00;99.90;;;;;;5018389;28;20197;-74
2022/03/18 02:56:34;;;;;;;70.25;28.17;;;7.00;99.90;;;;;;5013529;28;20052;-73
2022/03/18 02:59:00;;;;;;;71.22;27.67;;;6.90;99.90;;;;;;5020988;28;20041;-72
2022/03/18 03:01:27;;;;;;;69.20;27.17;;;7.00;99.90;;;;;;5010840;28;20030;-74
2022/03/18 03:03:54;;;;;;;73.28;28.38;;;7.00;99.90;;;;;;5027393;28;20073;-74
2022/03/18 03:09:04;;;;;;;66.50;26.50;;;7.00;99.90;;;;;;5012015;28;20084;-73
2022/03/18 03:11:30;;;;;;;68.53;26.30;;;7.10;99.90;;;;;;5012859;28;20037;-73
2022/03/18 03:13:55;;;;;;;71.13;27.25;;;7.00;99.90;;;;;;5012068;28;20136;-72
2022/03/18 03:16:21;;;;;;;67.13;26.45;;;7.00;99.90;;;;;;5022029;28;20080;-73
2022/03/18 03:18:48;;;;;;;70.95;26.70;;;7.10;99.90;;;;;;5014563;28;20038;-73
2022/03/18 03:21:14;;;;;;;66.35;26.58;;;7.00;99.90;;;;;;5032394;28;20113;-73
2022/03/18 03:23:41;;;;;;;64.78;26.75;;;7.00;99.90;;;;;;5020205;28;20029;-72
2022/03/18 03:26:07;;;;;;;69.38;27.73;;;7.00;99.90;;;;;;5022239;28;20026;-74
2022/03/18 03:28:33;;;;;;;70.13;27.80;;;7.00;99.90;;;;;;5028284;28;20041;-72
2022/03/18 03:30:58;;;;;;;68.65;25.92;;;7.00;99.90;;;;;;5020871;28;20021;-72
2022/03/18 03:33:25;;;;;;;70.50;26.67;;;6.90;99.90;;;;;;5017862;28;20110;-73
2022/03/18 03:35:50;;;;;;;71.25;25.90;;;7.00;99.90;;;;;;5016815;28;20029;-72
2022/03/18 03:38:16;;;;;;;69.60;26.20;;;7.00;99.90;;;;;;5018418;28;20338;-73
2022/03/18 03:40:43;;;;;;;70.30;27.98;;;6.90;99.90;;;;;;5015664;28;20587;-73
2022/03/18 03:43:10;;;;;;;72.60;28.30;;;6.90;99.90;;;;;;5020245;28;20037;-74
2022/03/18 03:45:36;;;;;;;71.15;26.50;;;6.90;99.90;;;;;;5028513;28;20042;-72
2022/03/18 03:48:02;;;;;;;72.78;27.90;;;6.90;99.90;;;;;;5041007;28;20113;-71
2022/03/18 03:50:28;;;;;;;68.70;26.67;;;6.90;99.90;;;;;;5021834;28;20189;-72
2022/03/18 03:52:54;;;;;;;73.85;27.63;;;6.90;99.90;;;;;;5018087;28;20095;-73
2022/03/18 03:55:20;;;;;;;64.25;26.45;;;6.80;99.90;;;;;;5014361;28;20083;-72
2022/03/18 03:57:46;;;;;;;72.10;26.88;;;6.80;99.90;;;;;;5010908;28;20096;-72
2022/03/18 04:00:12;;;;;;;74.45;27.42;;;6.80;99.90;;;;;;5019515;28;20029;-75
2022/03/18 04:02:38;;;;;;;68.60;27.00;;;6.70;99.90;;;;;;5002935;28;20049;-75
2022/03/18 04:05:07;;;;;;;76.80;28.48;;;6.80;99.90;;;;;;5012347;28;20030;-72
2022/03/18 04:07:35;;;;;;;75.53;27.83;;;6.80;99.90;;;;;;5011230;28;20172;-72
2022/03/18 04:10:01;;;;;;;74.93;28.30;;;6.80;99.90;;;;;;5008566;28;20026;-74
2022/03/18 04:12:27;;;;;;;76.88;28.50;;;6.80;99.90;;;;;;5007805;28;20033;-73
2022/03/18 04:14:53;;;;;;;78.88;28.88;;;6.80;99.90;;;;;;5023096;28;20026;-72
2022/03/18 04:17:18;;;;;;;78.55;29.75;;;6.80;99.90;;;;;;5012868;28;20033;-71
2022/03/18 04:19:44;;;;;;;75.13;29.40;;;6.80;99.90;;;;;;5008548;28;20400;-73
2022/03/18 04:22:10;;;;;;;76.80;30.55;;;6.90;99.90;;;;;;5008034;28;20057;-73
2022/03/18 04:24:36;;;;;;;80.05;29.58;;;6.80;99.90;;;;;;5001529;28;20030;-73
2022/03/18 04:27:02;;;;;;;83.05;30.38;;;6.80;99.90;;;;;;4995718;28;20785;-71
2022/03/18 04:29:28;;;;;;;84.18;31.60;;;6.70;99.90;;;;;;5010026;28;20026;-72
2022/03/18 04:31:54;;;;;;;81.10;30.25;;;6.80;99.90;;;;;;5010853;28;20541;-73
2022/03/18 04:34:19;;;;;;;84.20;31.85;;;6.70;99.90;;;;;;5010545;28;20038;-73
2022/03/18 04:36:45;;;;;;;86.90;32.25;;;6.80;99.90;;;;;;5007952;28;20053;-72
2022/03/18 04:39:11;;;;;;;86.85;32.30;;;6.70;99.90;;;;;;5012624;28;20029;-74
2022/03/18 04:41:37;;;;;;;90.28;33.15;;;6.70;99.90;;;;;;5010533;28;20046;-72
2022/03/18 04:44:03;;;;;;;88.07;31.83;;;6.70;99.90;;;;;;5009823;28;20686;-73
2022/03/18 04:46:31;;;;;;;92.38;31.85;;;6.70;99.90;;;;;;5017045;28;20508;-71
2022/03/18 04:48:58;;;;;;;88.85;31.90;;;6.70;99.90;;;;;;5019048;28;20369;-73
2022/03/18 04:51:24;;;;;;;89.38;32.53;;;6.70;99.90;;;;;;5010175;28;20084;-71
2022/03/18 04:53:50;;;;;;;86.32;32.22;;;6.60;99.90;;;;;;5010494;28;20030;-72
2022/03/18 04:59:00;;;;;;;87.25;31.88;;;6.60;99.90;;;;;;5016610;28;20042;-74
2022/03/18 05:01:26;;;;;;;96.13;35.33;;;6.60;99.90;;;;;;5009940;28;20396;-73
2022/03/18 05:03:52;;;;;;;93.40;32.22;;;6.60;99.90;;;;;;5010939;28;20046;-72
2022/03/18 05:06:18;;;;;;;92.82;32.33;;;6.60;99.90;;;;;;5028463;28;20029;-73
2022/03/18 05:08:44;;;;;;;89.93;33.50;;;6.60;99.90;;;;;;5012897;28;20124;-72
2022/03/18 05:11:10;;;;;;;91.55;33.35;;;6.60;99.90;;;;;;5008782;28;20104;-74
2022/03/18 05:13:36;;;;;;;93.75;32.00;;;6.60;99.90;;;;;;5008548;28;20056;-73
2022/03/18 05:16:01;;;;;;;93.75;33.35;;;6.50;99.90;;;;;;5009931;28;20022;-74
2022/03/18 05:18:27;;;;;;;90.57;31.73;;;6.50;99.90;;;;;;5009124;28;20033;-73
2022/03/18 05:20:52;;;;;;;86.63;32.65;;;6.60;99.90;;;;;;5010269;28;20044;-74
2022/03/18 05:23:18;;;;;;;97.88;32.63;;;6.60;99.90;;;;;;5009525;28;20038;-73
2022/03/18 05:25:44;;;;;;;88.40;31.30;;;6.60;99.90;;;;;;5020075;28;20042;-73
2022/03/18 05:28:10;;;;;;;88.40;31.55;;;6.60;99.90;;;;;;5016039;28;20826;-72
2022/03/18 05:30:36;;;;;;;89.85;30.40;;;6.60;99.90;;;;;;5009807;28;20061;-73
2022/03/18 05:33:02;;;;;;;90.28;31.75;;;6.60;99.90;;;;;;5008317;28;20065;-72
2022/03/18 05:35:27;;;;;;;91.95;31.55;;;6.60;99.90;;;;;;5007139;28;20790;-72
2022/03/18 05:37:53;;;;;;;94.78;32.60;;;6.60;99.90;;;;;;5008686;28;20034;-70
2022/03/18 05:40:19;;;;;;;87.15;31.30;;;6.60;99.90;;;;;;5008617;28;20033;-72
2022/03/18 05:42:45;;;;;;;91.22;31.75;;;6.60;99.90;;;;;;5010051;28;20037;-72
2022/03/18 05:45:11;;;;;;;84.38;30.27;;;6.50;99.90;;;;;;5009546;28;20033;-72
2022/03/18 05:47:37;;;;;;;91.72;31.02;;;6.50;99.90;;;;;;5009058;28;20042;-72
2022/03/18 05:50:06;;;;;;;89.50;31.50;;;6.50;99.90;;;;;;5009067;28;20056;-69
2022/03/18 05:52:36;;;;;;;94.03;32.30;;;6.50;99.90;;;;;;5009066;28;20132;-72
2022/03/18 05:55:03;;;;;;;91.70;31.67;;;6.50;99.90;;;;;;5009359;28;20028;-71
2022/03/18 05:57:29;;;;;;;81.93;30.25;;;6.50;99.90;;;;;;5008801;28;20042;-72
2022/03/18 05:59:57;;;;;;;92.78;32.55;;;6.50;99.90;;;;;;5015151;28;20029;-73
2022/03/18 06:02:23;;;;;;;95.22;33.10;;;6.50;99.90;;;;;;5008492;28;20076;-72
2022/03/18 06:04:49;;;;;;;89.22;32.33;;;6.50;99.90;;;;;;5009245;28;20029;-73
2022/03/18 06:07:15;;;;;;;80.07;30.60;;;6.50;99.90;;;;;;5009224;28;20113;-76
2022/03/18 06:12:25;;;;;;;90.38;31.77;;;6.50;99.90;;;;;;5008406;28;20518;-73
2022/03/18 06:14:51;;;;;;;88.30;31.75;;;6.50;99.90;;;;;;5009207;28;20061;-71
2022/03/18 06:17:17;;;;;;;87.55;31.40;;;6.50;99.90;;;;;;5008503;28;20037;-73
2022/03/18 06:19:42;;;;;;;90.65;30.83;;;6.50;99.90;;;;;;5008884;28;20132;-72
2022/03/18 06:22:08;;;;;;;91.93;31.55;;;6.40;99.90;;;;;;5008102;28;20456;-70
2022/03/18 06:24:35;;;;;;;90.72;32.60;;;6.40;99.90;;;;;;5008503;28;20042;-71
2022/03/18 06:27:01;;;;;;;89.50;32.20;;;6.40;99.90;;;;;;5009510;28;20065;-71
2022/03/18 06:29:28;;;;;;;90.80;31.83;;;6.40;99.90;;;;;;5008856;28;20044;-72
2022/03/18 06:31:54;;;;;;;88.75;31.05;;;6.50;99.90;;;;;;5026275;28;20034;-71
2022/03/18 06:34:20;;;;;;;90.28;31.83;;;6.50;99.90;;;;;;5008055;28;20481;-70
2022/03/18 06:36:47;;;;;;;96.70;33.22;;;6.50;99.90;;;;;;5007629;28;20030;-71
2022/03/18 06:39:14;;;;;;;86.93;31.85;;;6.50;99.90;;;;;;5009201;28;20040;-69
2022/03/18 06:41:40;;;;;;;93.18;33.42;;;6.50;99.90;;;;;;5008052;28;20033;-74
2022/03/18 06:44:08;;;;;;;86.90;31.88;;;6.60;99.90;;;;;;5008008;28;20485;-73
2022/03/18 06:46:37;;;;;;;85.07;30.63;;;6.60;99.90;;;;;;5021470;28;20049;-72
2022/03/18 06:49:04;;;;;;;84.97;30.30;;;6.60;99.90;;;;;;5009363;28;20042;-70
2022/03/18 06:51:30;;;;;;;93.43;31.83;;;6.60;99.90;;;;;;5007844;28;20038;-72
2022/03/18 06:53:56;;;;;;;86.55;31.42;;;6.60;99.90;;;;;;5023266;28;20465;-69
2022/03/18 06:56:22;;;;;;;96.00;33.63;;;6.50;99.90;;;;;;5006771;28;20025;-71
2022/03/18 06:58:48;;;;;;;88.40;32.00;;;6.60;99.90;;;;;;5007544;28;20048;-72
2022/03/18 07:01:14;;;;;;;84.93;31.25;;;6.60;99.90;;;;;;5013202;28;20030;-71
2022/03/18 07:03:40;;;;;;;91.28;31.75;;;6.60;99.90;;;;;;5006457;28;20089;-72
2022/03/18 07:06:06;;;;;;;94.88;31.05;;;6.60;99.90;;;;;;5009200;28;20120;-72
2022/03/18 07:08:33;;;;;;;83.80;30.63;;;6.60;99.90;;;;;;5008012;28;20057;-70
2022/03/18 07:10:58;;;;;;;86.43;30.33;;;6.60;99.90;;;;;;5008658;28;20042;-72
2022/03/18 07:13:24;;;;;;;86.70;31.02;;;6.70;99.90;;;;;;5007886;28;20105;-72
2022/03/18 07:15:49;;;;;;;86.03;30.13;;;6.70;99.90;;;;;;5008565;28;20033;-69
2022/03/18 07:18:15;;;;;;;84.97;30.02;;;6.70;99.90;;;;;;5008573;28;20033;-69
2022/03/18 07:20:41;;;;;;;84.07;31.13;;;6.70;99.90;;;;;;5006484;28;20141;-71
2022/03/18 07:23:14;;;;;;;86.97;30.40;;;6.80;99.90;;;;;;5008610;28;20052;-71
2022/03/18 07:25:42;;;;;;;85.28;29.38;;;6.80;99.90;;;;;;5007538;28;20083;-70
2022/03/18 07:28:10;;;;;;;89.65;30.45;;;6.80;99.90;;;;;;5008599;28;20050;-72
2022/03/18 07:30:38;;;;;;;85.95;30.25;;;6.80;99.90;;;;;;5016375;28;20045;-69
2022/03/18 07:33:04;;;;;;;76.38;29.60;;;6.80;99.90;;;;;;5008769;28;20029;-70
2022/03/18 07:35:31;;;;;;;83.47;29.98;;;6.80;99.90;;;;;;5011388;28;20108;-70
2022/03/18 07:37:57;;;;;;;77.43;28.60;;;6.90;99.90;;;;;;5011915;28;20038;-71
2022/03/18 07:40:24;;;;;;;79.78;29.02;;;6.90;99.90;;;;;;5011280;28;20468;-73
2022/03/18 07:42:52;;;;;;;78.20;28.83;;;6.90;99.90;;;;;;5012017;28;20030;-72
2022/03/18 07:45:27;;;;;;;81.57;28.10;;;7.00;99.90;;;;;;5027169;28;20666;-72
2022/03/18 07:47:55;;;;;;;74.78;27.52;;;7.10;99.90;;;;;;5000213;28;20033;-72
2022/03/18 07:50:23;;;;;;;83.53;28.27;;;7.10;99.90;;;;;;5010555;28;20400;-74
2022/03/18 07:52:57;;;;;;;80.38;27.45;;;7.00;99.90;;;;;;5011599;28;20076;-69
2022/03/18 07:55:25;;;;;;;75.53;27.33;;;7.10;99.90;;;;;;5010977;28;20040;-73
2022/03/18 07:57:52;;;;;;;82.07;27.45;;;7.10;99.90;;;;;;5011975;28;20110;-71
2022/03/18 08:00:19;;;;;;;74.00;27.70;;;7.10;99.90;;;;;;5011897;28;20391;-70
2022/03/18 08:02:47;;;;;;;78.22;27.70;;;7.20;99.90;;;;;;5010006;28;20053;-70
2022/03/18 08:05:13;;;;;;;78.25;27.55;;;7.10;99.90;;;;;;5025097;28;20037;-69
2022/03/18 08:07:39;;;;;;;73.68;27.35;;;7.20;99.90;;;;;;5010970;28;20033;-69
2022/03/18 08:10:08;;;;;;;71.65;26.80;;;7.30;99.90;;;;;;5011176;28;20030;-71
2022/03/18 08:12:34;;;;;;;72.10;26.60;;;7.30;99.90;;;;;;5010939;28;20069;-71
2022/03/18 08:15:02;;;;;;;71.75;27.67;;;7.40;99.90;;;;;;5010670;28;20033;-72
2022/03/18 08:17:28;;;;;;;71.25;27.15;;;7.40;99.90;;;;;;5010526;28;20554;-72
2022/03/18 08:19:54;;;;;;;76.32;27.27;;;7.40;99.90;;;;;;5011107;28;20099;-72
2022/03/18 08:22:21;;;;;;;71.82;27.45;;;7.40;99.90;;;;;;5011586;28;20038;-71
2022/03/18 08:24:48;;;;;;;74.35;27.40;;;7.60;99.90;;;;;;5010921;28;20109;-71
2022/03/18 08:27:14;;;;;;;70.22;27.25;;;7.60;99.90;;;;;;5009727;28;20049;-72
2022/03/18 08:29:40;;;;;;;76.75;28.10;;;7.60;99.90;;;;;;5011624;28;20037;-68
2022/03/18 08:32:07;;;;;;;68.55;25.40;;;7.70;99.90;;;;;;5012629;28;20120;-72
2022/03/18 08:34:32;;;;;;;74.90;27.10;;;7.70;99.90;;;;;;5010455;28;20056;-72
2022/03/18 08:36:58;;;;;;;75.05;27.75;;;7.70;99.90;;;;;;5010656;28;20030;-71
2022/03/18 08:39:24;;;;;;;67.03;26.30;;;7.80;99.90;;;;;;5010469;28;20042;-74
2022/03/18 08:41:50;;;;;;;73.65;28.17;;;7.80;99.90;;;;;;5010590;28;20384;-69
2022/03/18 08:44:20;;;;;;;73.45;25.58;;;8.00;99.90;;;;;;5010526;28;20539;-67
2022/03/18 08:46:46;;;;;;;72.45;26.92;;;8.00;99.90;;;;;;5009240;28;20049;-69
2022/03/18 08:49:12;;;;;;;69.30;27.48;;;7.80;99.90;;;;;;5010529;28;20105;-69
2022/03/18 08:51:38;;;;;;;76.03;27.17;;;7.80;99.90;;;;;;5009483;28;20030;-70
2022/03/18 08:54:05;;;;;;;71.05;27.17;;;7.90;99.90;;;;;;5010270;28;20042;-70
2022/03/18 08:56:31;;;;;;;78.05;28.38;;;7.90;99.90;;;;;;5009294;28;20025;-71
2022/03/18 08:58:57;;;;;;;70.22;27.45;;;8.00;99.90;;;;;;5009703;28;20042;-71
2022/03/18 09:01:23;;;;;;;76.15;27.70;;;8.00;99.90;;;;;;5009777;28;20103;-73
2022/03/18 09:03:49;;;;;;;73.22;28.65;;;8.00;99.90;;;;;;5009784;28;20050;-68
2022/03/18 09:06:14;;;;;;;71.15;28.52;;;8.10;99.90;;;;;;5010385;28;20026;-72
2022/03/18 09:08:41;;;;;;;74.57;28.20;;;8.30;99.90;;;;;;5008870;28;20384;-71
2022/03/18 09:11:07;;;;;;;69.40;27.75;;;8.50;99.90;;;;;;5010257;28;20492;-69
2022/03/18 09:13:35;;;;;;;67.03;27.83;;;8.80;99.90;;;;;;5009327;28;20046;-69
2022/03/18 09:16:05;;;;;;;69.88;28.02;;;9.00;99.90;;;;;;5009969;28;20076;-69
2022/03/18 09:18:31;;;;;;;72.90;26.17;;;9.20;99.90;;;;;;5009532;28;20121;-69
2022/03/18 09:20:57;;;;;;;64.65;25.45;;;9.40;99.90;;;;;;5007653;28;20746;-71
2022/03/18 09:23:24;;;;;;;68.30;27.25;;;9.00;99.90;;;;;;5010530;28;20037;-70
2022/03/18 09:25:50;;;;;;;66.68;27.02;;;8.90;99.90;;;;;;5009600;28;20033;-71
2022/03/18 09:28:16;;;;;;;67.38;27.02;;;9.10;99.90;;;;;;5010196;28;20030;-70
2022/03/18 09:30:42;;;;;;;64.10;26.38;;;9.00;99.90;;;;;;5009049;28;20073;-67
2022/03/18 09:33:08;;;;;;;59.78;25.50;;;9.00;99.90;;;;;;5010435;28;20029;-66
2022/03/18 09:35:35;;;;;;;58.85;25.95;;;9.10;99.90;;;;;;5009204;28;20099;-69
2022/03/18 09:38:01;;;;;;;61.67;25.42;;;9.20;99.90;;;;;;5009955;28;20057;-69
2022/03/18 09:40:26;;;;;;;64.45;25.70;;;9.20;99.90;;;;;;5009133;28;20449;-73
2022/03/18 09:43:10;;;;;;;59.78;25.38;;;9.30;99.90;;;;;;5007990;28;20029;-70
2022/03/18 09:45:39;;;;;;;68.15;25.23;;;9.20;99.90;;;;;;5009068;28;20049;-69
2022/03/18 09:48:09;;;;;;;67.40;25.98;;;9.10;99.90;;;;;;5010000;28;20480;-69
2022/03/18 09:50:37;;;;;;;49.22;19.02;;;9.00;99.90;;;;;;5008894;28;20471;-67
2022/03/18 09:53:03;;;;;;;67.38;26.48;;;9.10;99.90;;;;;;5009740;28;20052;-70
2022/03/18 09:55:30;;;;;;;67.43;26.88;;;9.30;99.90;;;;;;5007895;28;20045;-73
2022/03/18 09:57:56;;;;;;;68.63;25.05;;;9.20;99.90;;;;;;5008593;28;20080;-69
2022/03/18 10:00:22;;;;;;;71.28;25.75;;;9.00;99.90;;;;;;5016122;28;20030;-68
2022/03/18 10:03:07;;;;;;;69.93;26.38;;;8.80;99.90;;;;;;5009266;28;20061;-70
2022/03/18 10:05:33;;;;;;;60.97;24.52;;;8.80;99.90;;;;;;5008534;28;20052;-69
2022/03/18 10:07:59;;;;;;;64.40;26.27;;;8.80;99.90;;;;;;5008951;28;20030;-69
2022/03/18 10:10:28;;;;;;;66.68;25.85;;;8.90;99.90;;;;;;5009652;28;20026;-69
2022/03/18 10:12:56;;;;;;;65.47;24.17;;;9.10;99.90;;;;;;5008441;28;20030;-70
2022/03/18 10:15:26;;;;;;;73.45;27.63;;;9.00;99.90;;;;;;5009168;28;20096;-69
2022/03/18 10:17:54;;;;;;;65.30;26.05;;;9.00;99.90;;;;;;5008120;28;20456;-69
2022/03/18 10:20:30;;;;;;;67.15;25.42;;;9.30;99.90;;;;;;5009177;28;20503;-70
2022/03/18 10:23:01;;;;;;;65.93;26.40;;;9.10;99.90;;;;;;5009199;28;20048;-69
2022/03/18 10:25:56;;;;;;;66.95;26.27;;;9.10;99.90;;;;;;5009092;28;20073;-68
2022/03/18 10:28:37;;;;;;;60.78;24.85;;;9.20;99.90;;;;;;5008351;28;20125;-69
2022/03/18 10:31:10;;;;;;;;;;;9.40;99.90;;;;;;5008881;28;20038;-69
2022/03/18 10:39:41;;;;;;;57.30;24.25;;;9.30;99.90;;;;;;5008057;28;20084;-69
2022/03/18 10:42:14;;;;;;;65.57;25.45;;;9.30;99.90;;;;;;5008702;28;20117;-70
2022/03/18 10:44:48;;;;;;;63.33;27.10;;;9.60;99.90;;;;;;5008047;28;20030;-69
2022/03/18 10:47:27;;;;;;;64.90;25.33;;;9.80;99.90;;;;;;5008536;28;20042;-71
2022/03/18 10:50:00;;;;;;;67.10;26.17;;;9.80;99.90;;;;;;5007496;28;20125;-70
2022/03/18 10:52:28;;;;;;;58.80;24.45;;;9.90;99.90;;;;;;5008850;28;20093;-70
2022/03/18 10:54:56;;;;;;;69.30;26.45;;;10.00;99.90;;;;;;5008592;28;20042;-72
2022/03/18 10:57:22;;;;;;;61.50;25.52;;;9.70;99.90;;;;;;5009108;28;20045;-71
2022/03/18 10:59:48;;;;;;;60.70;25.05;;;9.90;99.90;;;;;;5009643;28;20030;-70
2022/03/18 11:02:16;;;;;;;62.47;26.02;;;9.80;99.90;;;;;;5009626;28;20036;-68
2022/03/18 11:04:42;;;;;;;58.33;24.25;;;10.00;99.90;;;;;;5007121;28;20492;-69
2022/03/18 11:12:45;;;;;;;62.10;26.02;;;10.00;99.90;;;;;;5011595;28;20498;-69
2022/03/18 11:15:11;;;;;;;55.67;24.20;;;9.90;99.90;;;;;;5012868;28;20464;-70
2022/03/18 11:17:40;;;;;;;62.35;25.27;;;10.00;99.90;;;;;;5011652;28;20072;-69
2022/03/18 11:20:06;;;;;;;55.63;24.65;;;10.00;99.90;;;;;;5011801;28;20431;-72
2022/03/18 11:22:34;;;;;;;60.78;24.75;;;10.20;99.90;;;;;;5012354;28;20034;-72
2022/03/18 11:25:01;;;;;;;57.50;24.25;;;10.10;99.90;;;;;;5002444;28;20069;-70
2022/03/18 11:27:27;;;;;;;63.13;26.63;;;10.30;99.90;;;;;;5008825;28;20040;-70
2022/03/18 11:30:18;;;;;;;59.75;24.67;;;10.40;99.90;;;;;;5009083;28;20032;-70
2022/03/18 11:33:04;;;;;;;63.58;24.35;;;10.60;99.90;;;;;;5007036;28;20044;-71
2022/03/18 11:35:52;;;;;;;60.22;24.85;;;10.70;99.90;;;;;;5004078;28;20508;-70
2022/03/18 11:38:23;;;;;;;64.50;26.70;;;10.90;99.90;;;;;;5012277;28;20120;-68
2022/03/18 11:41:04;;;;;;;57.97;23.95;;;10.80;99.90;;;;;;5011744;28;20022;-69
2022/03/18 11:43:33;;;;;;;56.33;23.90;;;10.50;99.90;;;;;;5012221;28;20034;-70
2022/03/18 11:46:17;;;;;;;56.65;24.35;;;10.50;99.90;;;;;;5011291;28;20483;-69
2022/03/18 11:48:52;;;;;;;57.65;24.08;;;10.40;99.90;;;;;;5010519;28;20087;-70
2022/03/18 11:51:31;;;;;;;56.78;23.85;;;10.40;99.90;;;;;;5011064;28;20030;-68
2022/03/18 11:54:07;;;;;;;56.95;23.58;;;10.60;99.90;;;;;;5011552;28;20034;-69
2022/03/18 11:56:53;;;;;;;53.60;23.35;;;10.70;99.90;;;;;;5024749;28;20041;-73
2022/03/18 11:59:24;;;;;;;59.53;24.52;;;11.00;99.90;;;;;;5007771;28;20054;-71
2022/03/18 12:02:07;;;;;;;55.33;23.08;;;11.00;99.90;;;;;;4996925;28;20445;-71
2022/03/18 12:04:33;;;;;;;54.88;23.73;;;10.80;99.90;;;;;;5017791;28;20407;-70
2022/03/18 12:07:20;;;;;;;52.78;22.77;;;10.70;99.90;;;;;;5012232;28;20105;-70
2022/03/18 12:10:06;;;;;;;55.58;23.65;;;10.90;99.90;;;;;;5008840;28;20736;-69
2022/03/18 12:12:39;;;;;;;51.70;22.52;;;11.20;99.90;;;;;;5007924;28;20237;-71
2022/03/18 12:15:17;;;;;;;57.55;23.35;;;11.30;99.90;;;;;;5011651;28;20065;-71
2022/03/18 12:17:43;;;;;;;60.22;23.33;;;11.60;99.90;;;;;;5013693;28;20098;-70
2022/03/18 12:20:11;;;;;;;52.30;23.05;;;11.70;99.90;;;;;;5011446;28;20030;-69
2022/03/18 12:22:38;;;;;;;54.08;23.25;;;11.60;99.90;;;;;;5012071;28;20157;-72
2022/03/18 12:25:05;;;;;;;55.63;23.98;;;11.50;99.90;;;;;;5008603;28;20034;-70
2022/03/18 12:27:36;;;;;;;55.30;22.75;;;11.50;99.90;;;;;;5008240;28;20034;-70
2022/03/18 12:30:07;;;;;;;60.53;23.65;;;11.90;99.90;;;;;;5011338;28;20801;-71
2022/03/18 12:32:48;;;;;;;54.60;23.98;;;11.80;99.90;;;;;;5009560;28;20376;-71
2022/03/18 12:35:19;;;;;;;52.50;21.63;;;11.60;99.90;;;;;;5010676;28;20041;-71
2022/03/18 12:37:46;;;;;;;49.28;22.08;;;11.70;99.90;;;;;;5011119;28;20064;-70
2022/03/18 12:40:17;;;;;;;52.33;22.80;;;11.90;99.90;;;;;;5011785;28;20041;-71
2022/03/18 12:42:46;;;;;;;51.03;22.92;;;12.10;99.90;;;;;;5006529;28;20096;-71
2022/03/18 12:45:12;;;;;;;48.95;21.30;;;12.20;99.90;;;;;;5008770;28;20026;-70
2022/03/18 12:47:38;;;;;;;48.80;21.60;;;12.30;99.90;;;;;;5010561;28;20045;-73
2022/03/18 12:50:05;;;;;;;51.35;22.45;;;11.90;99.90;;;;;;5012111;28;20626;-70
2022/03/18 12:52:30;;;;;;;49.58;21.80;;;12.10;99.90;;;;;;5007771;28;20141;-70
2022/03/18 12:55:10;;;;;;;54.92;22.83;;;11.90;99.90;;;;;;5010149;28;20022;-70
2022/03/18 12:57:44;;;;;;;52.70;22.77;;;11.90;99.90;;;;;;5010581;28;20025;-70
2022/03/18 13:00:11;;;;;;;52.00;22.00;;;11.70;99.90;;;;;;5011108;28;20049;-70
2022/03/18 13:02:41;;;;;;;56.13;22.90;;;11.90;99.90;;;;;;5009606;28;20060;-72
2022/03/18 13:05:15;;;;;;;53.50;23.08;;;11.90;99.90;;;;;;5010969;28;20036;-71